Time;durP1;ratioP1;P1;durP2;ratioP2;P2;SDS_P1;SDS_P2;PMS_P1;PMS_P2;Temp;Humidity;BMP_temperature;BMP_pressure;BME280_temperature;BME280_humidity;BME280_pressure;Samples;Min_cycle;Max_cycle;Signal;HPM_P1;HPM_P2
2021/01/12 00:02:24;;;;;;;23.63;14.43;;;1.60;99.90;;;;;;5052193;28;20029;-61
2021/01/12 00:04:50;;;;;;;27.58;16.20;;;1.50;99.90;;;;;;5053368;28;20048;-61
2021/01/12 00:07:23;;;;;;;28.00;15.15;;;1.40;99.90;;;;;;5053204;28;20025;-61
2021/01/12 00:09:49;;;;;;;29.40;16.08;;;1.50;99.90;;;;;;5053481;28;20025;-61
2021/01/12 00:12:17;;;;;;;27.33;15.65;;;1.60;99.90;;;;;;5053357;28;20083;-62
2021/01/12 00:14:43;;;;;;;27.25;16.25;;;1.60;99.90;;;;;;5054293;28;20025;-61
2021/01/12 00:17:08;;;;;;;33.80;16.13;;;1.60;99.90;;;;;;5053634;28;20029;-64
2021/01/12 00:19:35;;;;;;;21.50;13.52;;;1.60;99.90;;;;;;5053791;28;20035;-61
2021/01/12 00:22:04;;;;;;;26.58;14.63;;;1.50;99.90;;;;;;5054648;28;20037;-61
2021/01/12 00:24:30;;;;;;;26.00;15.25;;;1.50;99.90;;;;;;5047925;28;20032;-61
2021/01/12 00:26:55;;;;;;;28.42;16.27;;;1.50;99.90;;;;;;5034528;28;20025;-61
2021/01/12 00:29:21;;;;;;;27.33;16.73;;;1.50;99.90;;;;;;5031617;28;20049;-61
2021/01/12 00:31:47;;;;;;;27.73;16.40;;;1.30;99.90;;;;;;5033493;28;20017;-62
2021/01/12 00:34:14;;;;;;;27.85;16.35;;;1.40;99.90;;;;;;5034638;28;20352;-62
2021/01/12 00:36:57;;;;;;;25.55;15.60;;;1.50;99.90;;;;;;5035470;28;20032;-61
2021/01/12 00:39:23;;;;;;;29.45;16.23;;;1.50;99.90;;;;;;5033185;28;20034;-62
2021/01/12 00:41:55;;;;;;;28.83;16.60;;;1.60;99.90;;;;;;5032495;28;20021;-61
2021/01/12 00:44:24;;;;;;;28.63;16.10;;;1.50;99.90;;;;;;5034048;28;20057;-61
2021/01/12 00:46:50;;;;;;;33.95;16.20;;;1.50;99.90;;;;;;5033494;28;20055;-61
2021/01/12 00:49:18;;;;;;;28.90;16.30;;;1.50;99.90;;;;;;5032647;28;20030;-62
2021/01/12 00:51:44;;;;;;;28.27;14.82;;;1.50;99.90;;;;;;5034424;28;20018;-62
2021/01/12 00:54:15;;;;;;;31.02;16.67;;;1.50;99.90;;;;;;5036614;28;20124;-61
2021/01/12 00:56:41;;;;;;;27.70;15.82;;;1.50;99.90;;;;;;5054661;28;20032;-62
2021/01/12 00:59:07;;;;;;;27.65;15.85;;;1.40;99.90;;;;;;5055577;28;20080;-64
2021/01/12 01:01:33;;;;;;;25.40;14.68;;;1.40;99.90;;;;;;5052694;28;20033;-62
2021/01/12 01:03:59;;;;;;;24.70;14.20;;;1.50;99.90;;;;;;5052404;28;20050;-61
2021/01/12 01:06:25;;;;;;;25.77;15.13;;;1.60;99.90;;;;;;5051596;28;20127;-61
2021/01/12 01:08:51;;;;;;;29.70;16.20;;;1.50;99.90;;;;;;5052897;28;20466;-61
2021/01/12 01:11:18;;;;;;;27.17;15.40;;;1.50;99.90;;;;;;5053034;28;20112;-62
2021/01/12 01:13:44;;;;;;;32.28;16.73;;;1.50;99.90;;;;;;5053354;28;20029;-61
2021/01/12 01:16:10;;;;;;;25.83;14.80;;;1.50;99.90;;;;;;5053049;28;20037;-61
2021/01/12 01:18:36;;;;;;;26.13;15.23;;;1.40;99.90;;;;;;5052212;28;20326;-64
2021/01/12 01:21:02;;;;;;;25.80;15.52;;;1.50;99.90;;;;;;5052984;28;20025;-61
2021/01/12 01:23:27;;;;;;;28.63;14.98;;;1.50;99.90;;;;;;5052077;28;20120;-61
2021/01/12 01:25:53;;;;;;;27.00;15.70;;;1.50;99.90;;;;;;5053993;28;20081;-61
2021/01/12 01:28:23;;;;;;;28.40;15.73;;;1.50;99.90;;;;;;5053227;28;20497;-61
2021/01/12 01:30:50;;;;;;;24.52;14.70;;;1.50;99.90;;;;;;5052862;28;20017;-61
2021/01/12 01:33:16;;;;;;;29.13;15.25;;;1.50;99.90;;;;;;5052617;28;20029;-61
2021/01/12 01:35:43;;;;;;;22.80;14.50;;;1.50;99.90;;;;;;5051906;28;20119;-61
2021/01/12 01:38:08;;;;;;;26.80;15.57;;;1.60;99.90;;;;;;5055824;28;20504;-64
2021/01/12 01:40:34;;;;;;;28.52;16.02;;;1.50;99.90;;;;;;5054909;28;20032;-62
2021/01/12 01:43:00;;;;;;;26.77;16.33;;;1.50;99.90;;;;;;5055690;28;20025;-64
2021/01/12 01:45:26;;;;;;;27.40;15.35;;;1.60;99.90;;;;;;5054684;28;20467;-64
2021/01/12 01:47:52;;;;;;;25.98;15.20;;;1.50;99.90;;;;;;5053595;28;20086;-65
2021/01/12 01:50:20;;;;;;;26.50;15.10;;;1.60;99.90;;;;;;5051376;28;20029;-65
2021/01/12 01:52:56;;;;;;;28.75;15.75;;;1.60;99.90;;;;;;5051271;28;20116;-62
2021/01/12 01:55:24;;;;;;;29.25;16.73;;;1.50;99.90;;;;;;5052543;28;20025;-62
2021/01/12 01:57:50;;;;;;;26.83;17.42;;;1.60;99.90;;;;;;5054208;28;20072;-65
2021/01/12 02:00:19;;;;;;;24.42;15.48;;;1.60;99.90;;;;;;5055078;28;20029;-61
2021/01/12 02:02:47;;;;;;;26.23;14.23;;;1.60;99.90;;;;;;5054467;28;20033;-62
2021/01/12 02:05:14;;;;;;;27.05;16.83;;;1.60;99.90;;;;;;5054142;28;20049;-61
2021/01/12 02:07:44;;;;;;;26.30;15.68;;;1.70;99.90;;;;;;5054208;28;20036;-61
2021/01/12 02:10:16;;;;;;;25.92;14.75;;;1.60;99.90;;;;;;5056523;28;20028;-62
2021/01/12 02:12:47;;;;;;;26.27;15.73;;;1.60;99.90;;;;;;5057678;28;20025;-62
2021/01/12 02:15:19;;;;;;;26.45;14.25;;;1.60;99.90;;;;;;5057426;28;20087;-61
2021/01/12 02:17:46;;;;;;;24.05;15.15;;;1.60;99.90;;;;;;5056228;28;20041;-60
2021/01/12 02:20:14;;;;;;;29.42;15.93;;;1.60;99.90;;;;;;5055591;28;20021;-60
2021/01/12 02:22:44;;;;;;;29.15;16.77;;;1.60;99.90;;;;;;5055153;28;20029;-61
2021/01/12 02:25:11;;;;;;;30.00;14.65;;;1.60;99.90;;;;;;5057079;28;20063;-63
2021/01/12 02:27:37;;;;;;;27.33;15.88;;;1.50;99.90;;;;;;5057197;28;20029;-61
2021/01/12 02:30:04;;;;;;;27.90;15.65;;;1.50;99.90;;;;;;5057405;28;20260;-65
2021/01/12 02:32:30;;;;;;;27.42;15.43;;;1.50;99.90;;;;;;5057108;28;20025;-61
2021/01/12 02:34:58;;;;;;;27.00;15.10;;;1.50;99.90;;;;;;5058062;28;20025;-62
2021/01/12 02:37:25;;;;;;;26.73;15.75;;;1.50;99.90;;;;;;5057716;28;20131;-61
2021/01/12 02:40:00;;;;;;;26.50;14.65;;;1.60;99.90;;;;;;5056674;28;20025;-62
2021/01/12 02:42:26;;;;;;;25.42;14.48;;;1.60;99.90;;;;;;5055142;28;20029;-63
2021/01/12 02:44:52;;;;;;;27.30;15.18;;;1.70;99.90;;;;;;5055010;28;20112;-63
2021/01/12 02:47:18;;;;;;;25.20;15.63;;;1.70;99.90;;;;;;5056075;28;20041;-61
2021/01/12 02:49:43;;;;;;;25.92;15.88;;;1.60;99.90;;;;;;5054624;28;20029;-61
2021/01/12 02:52:13;;;;;;;27.20;15.93;;;1.60;99.90;;;;;;5055368;28;20032;-61
2021/01/12 02:54:42;;;;;;;26.05;13.63;;;1.60;99.90;;;;;;5053785;28;20459;-61
2021/01/12 02:57:08;;;;;;;27.13;14.77;;;1.60;99.90;;;;;;5055029;28;20048;-61
2021/01/12 02:59:34;;;;;;;25.63;15.95;;;1.60;99.90;;;;;;5054615;28;20078;-61
2021/01/12 03:02:00;;;;;;;28.35;16.10;;;1.50;99.90;;;;;;5053951;28;20029;-61
2021/01/12 03:04:26;;;;;;;29.77;16.40;;;1.60;99.90;;;;;;5054288;28;20394;-61
2021/01/12 03:06:52;;;;;;;27.10;16.17;;;1.60;99.90;;;;;;5054874;28;20108;-61
2021/01/12 03:09:17;;;;;;;25.38;15.45;;;1.60;99.90;;;;;;5055170;28;20029;-63
2021/01/12 03:11:43;;;;;;;23.20;14.55;;;1.50;99.90;;;;;;5036839;28;20048;-64
2021/01/12 03:14:09;;;;;;;23.88;14.57;;;1.60;99.90;;;;;;5054804;28;20028;-61
2021/01/12 03:16:35;;;;;;;23.92;13.82;;;1.50;99.90;;;;;;5054712;28;20029;-64
2021/01/12 03:19:02;;;;;;;26.67;15.02;;;1.50;99.90;;;;;;5056833;28;20044;-65
2021/01/12 03:21:28;;;;;;;31.30;16.15;;;1.50;99.90;;;;;;5055557;28;20098;-61
2021/01/12 03:23:54;;;;;;;25.50;14.82;;;1.50;99.90;;;;;;5056735;28;20036;-65
2021/01/12 03:26:23;;;;;;;28.67;15.80;;;1.50;99.90;;;;;;5035304;28;20527;-61
2021/01/12 03:28:49;;;;;;;28.38;15.75;;;1.50;99.90;;;;;;5036809;28;20029;-61
2021/01/12 03:31:15;;;;;;;25.45;14.65;;;1.40;99.90;;;;;;5035254;28;20120;-62
2021/01/12 03:33:40;;;;;;;28.73;15.65;;;1.40;99.90;;;;;;5036336;28;20105;-61
2021/01/12 03:36:06;;;;;;;26.80;15.73;;;1.40;99.90;;;;;;5036852;28;20475;-65
2021/01/12 03:38:32;;;;;;;31.15;16.08;;;1.50;99.90;;;;;;5067889;28;20033;-62
2021/01/12 03:40:58;;;;;;;27.15;16.33;;;1.50;99.90;;;;;;5036158;28;20467;-66
2021/01/12 03:43:23;;;;;;;27.17;14.73;;;1.50;99.90;;;;;;5035967;28;20455;-62
2021/01/12 03:45:49;;;;;;;24.27;15.27;;;1.50;99.90;;;;;;5034265;28;20491;-61
2021/01/12 03:48:15;;;;;;;26.73;16.20;;;1.40;99.90;;;;;;5034985;28;20364;-61
2021/01/12 03:50:40;;;;;;;25.77;15.45;;;1.40;99.90;;;;;;5033993;28;20036;-61
2021/01/12 03:53:06;;;;;;;26.17;14.93;;;1.40;99.90;;;;;;5035076;28;20064;-61
2021/01/12 03:55:32;;;;;;;26.25;16.52;;;1.30;99.90;;;;;;5033696;28;20464;-61
2021/01/12 03:57:57;;;;;;;25.92;16.55;;;1.40;99.90;;;;;;5033100;28;20549;-61
2021/01/12 04:00:23;;;;;;;26.50;15.52;;;1.30;99.90;;;;;;5034553;28;20029;-60
2021/01/12 04:02:49;;;;;;;25.73;14.55;;;1.40;99.90;;;;;;5033300;28;20097;-61
2021/01/12 04:05:15;;;;;;;33.05;17.90;;;1.50;99.90;;;;;;5032540;28;20144;-62
2021/01/12 04:07:40;;;;;;;30.63;17.75;;;1.40;99.90;;;;;;5032083;28;20036;-61
2021/01/12 04:10:07;;;;;;;28.83;15.70;;;1.40;99.90;;;;;;5034058;28;20029;-61
2021/01/12 04:12:32;;;;;;;30.58;17.08;;;1.30;99.90;;;;;;5033359;28;20030;-61
2021/01/12 04:14:58;;;;;;;29.10;16.48;;;1.30;99.90;;;;;;5034223;28;20374;-61
2021/01/12 04:17:24;;;;;;;28.63;16.33;;;1.30;99.90;;;;;;5065790;28;20041;-61
2021/01/12 04:19:50;;;;;;;29.73;18.38;;;1.30;99.90;;;;;;5032641;28;20392;-61
2021/01/12 04:22:15;;;;;;;28.75;17.27;;;1.40;99.90;;;;;;5033579;28;20025;-61
2021/01/12 04:24:41;;;;;;;28.98;16.30;;;1.30;99.90;;;;;;5038831;28;20056;-61
2021/01/12 04:27:06;;;;;;;30.77;18.35;;;1.20;99.90;;;;;;5052592;28;20119;-61
2021/01/12 04:29:32;;;;;;;28.45;16.63;;;1.30;99.90;;;;;;5051936;28;20025;-61
2021/01/12 04:31:58;;;;;;;30.63;17.15;;;1.30;99.90;;;;;;5053126;28;20070;-61
2021/01/12 04:34:23;;;;;;;28.73;17.65;;;1.30;99.90;;;;;;5053525;28;20390;-61
2021/01/12 04:36:49;;;;;;;29.25;17.13;;;1.20;99.90;;;;;;5052763;28;20072;-61
2021/01/12 04:39:15;;;;;;;24.00;16.20;;;1.30;99.90;;;;;;5053511;28;20401;-61
2021/01/12 04:41:41;;;;;;;29.50;18.00;;;1.30;99.90;;;;;;5051957;28;20541;-61
2021/01/12 04:44:06;;;;;;;33.65;19.38;;;1.30;99.90;;;;;;5053888;28;20028;-61
2021/01/12 04:46:32;;;;;;;32.63;17.17;;;1.20;99.90;;;;;;5052536;28;20037;-67
2021/01/12 04:48:58;;;;;;;25.40;14.90;;;1.30;99.90;;;;;;5053196;28;20385;-61
2021/01/12 04:51:25;;;;;;;26.88;16.95;;;1.30;99.90;;;;;;5052409;28;20083;-61
2021/01/12 04:53:51;;;;;;;27.55;16.08;;;1.30;99.90;;;;;;5050782;28;20104;-61
2021/01/12 04:56:18;;;;;;;29.73;16.92;;;1.30;99.90;;;;;;5033095;28;20025;-62
2021/01/12 04:58:49;;;;;;;25.10;15.85;;;1.20;99.90;;;;;;5030818;28;20039;-66
2021/01/12 05:01:17;;;;;;;51.63;21.88;;;1.20;99.90;;;;;;5033001;28;20471;-62
2021/01/12 05:03:44;;;;;;;32.03;19.02;;;2.20;99.90;;;;;;5031384;28;20025;-62
2021/01/12 05:06:11;;;;;;;31.65;17.50;;;1.80;99.90;;;;;;5032677;28;20399;-61
2021/01/12 05:08:45;;;;;;;23.40;15.02;;;1.30;99.90;;;;;;5030951;28;20045;-61
2021/01/12 05:11:14;;;;;;;28.77;16.38;;;1.30;99.90;;;;;;5037743;28;20109;-61
2021/01/12 05:13:43;;;;;;;33.17;17.15;;;1.30;99.90;;;;;;5031868;28;20375;-61
2021/01/12 05:16:10;;;;;;;29.30;16.80;;;1.20;99.90;;;;;;5031281;28;20040;-61
2021/01/12 05:18:41;;;;;;;28.10;16.52;;;1.10;99.90;;;;;;5032002;28;20044;-61
2021/01/12 05:21:10;;;;;;;33.00;17.02;;;1.20;99.90;;;;;;5030859;28;20402;-60
2021/01/12 05:23:51;;;;;;;30.90;16.58;;;1.20;99.90;;;;;;5031497;28;20052;-61
2021/01/12 05:26:18;;;;;;;26.83;16.08;;;1.10;99.90;;;;;;5051552;28;20032;-61
2021/01/12 05:28:44;;;;;;;31.95;17.25;;;1.10;99.90;;;;;;5051525;28;20036;-61
2021/01/12 05:31:12;;;;;;;30.90;18.38;;;1.10;99.90;;;;;;5052070;28;20025;-61
2021/01/12 05:33:43;;;;;;;31.52;17.52;;;1.10;99.90;;;;;;5050598;28;20029;-61
2021/01/12 05:36:09;;;;;;;27.60;16.17;;;1.10;99.90;;;;;;5053035;28;20051;-61
2021/01/12 05:38:36;;;;;;;26.67;15.55;;;1.20;99.90;;;;;;5052693;28;20498;-61
2021/01/12 05:41:04;;;;;;;25.13;15.82;;;1.10;99.90;;;;;;5053833;28;20026;-61
2021/01/12 05:43:45;;;;;;;27.40;16.92;;;1.20;99.90;;;;;;5055471;28;20032;-70
2021/01/12 05:46:15;;;;;;;25.63;15.73;;;1.20;99.90;;;;;;5056630;28;20452;-61
2021/01/12 05:48:45;;;;;;;26.10;15.88;;;1.10;99.90;;;;;;5057169;28;20509;-63
2021/01/12 05:51:13;;;;;;;27.85;16.83;;;1.10;99.90;;;;;;5055579;28;20025;-61
2021/01/12 05:53:45;;;;;;;25.52;14.77;;;1.10;99.90;;;;;;5056533;28;20481;-64
2021/01/12 05:56:21;;;;;;;26.83;15.63;;;1.10;99.90;;;;;;5056212;28;20055;-69
2021/01/12 05:58:48;;;;;;;26.42;16.27;;;1.10;99.90;;;;;;5055301;28;20056;-61
2021/01/12 06:01:36;;;;;;;27.10;16.33;;;1.10;99.90;;;;;;5056726;28;20048;-61
2021/01/12 06:04:09;;;;;;;24.55;16.33;;;1.10;99.90;;;;;;5057361;28;20029;-61
2021/01/12 06:06:37;;;;;;;30.42;17.10;;;1.20;99.90;;;;;;5055679;28;20041;-61
2021/01/12 06:09:03;;;;;;;25.13;16.55;;;1.10;99.90;;;;;;5055755;28;20112;-61
2021/01/12 06:11:35;;;;;;;24.73;15.73;;;1.10;99.90;;;;;;5056247;28;20032;-61
2021/01/12 06:14:19;;;;;;;27.23;15.98;;;1.10;99.90;;;;;;5056606;28;20087;-61
2021/01/12 06:16:46;;;;;;;27.15;15.23;;;1.10;99.90;;;;;;5054447;28;20087;-61
2021/01/12 06:19:13;;;;;;;26.35;16.55;;;1.10;99.90;;;;;;5056237;28;20041;-61
2021/01/12 06:22:13;;;;;;;26.10;15.77;;;1.20;99.90;;;;;;5054485;28;20025;-61
2021/01/12 06:24:40;;;;;;;27.10;15.98;;;1.10;99.90;;;;;;5052015;28;20037;-61
2021/01/12 06:27:18;;;;;;;26.80;16.88;;;1.10;99.90;;;;;;5055454;28;20032;-61
2021/01/12 06:29:46;;;;;;;25.48;15.73;;;1.00;99.90;;;;;;5055021;28;20162;-61
2021/01/12 06:32:22;;;;;;;25.58;16.40;;;1.10;99.90;;;;;;5055057;28;20056;-63
2021/01/12 06:34:55;;;;;;;24.38;15.30;;;1.10;99.90;;;;;;5054732;28;20055;-66
2021/01/12 06:37:22;;;;;;;25.85;16.73;;;1.10;99.90;;;;;;5055607;28;20029;-61
2021/01/12 06:39:59;;;;;;;25.70;15.57;;;1.10;99.90;;;;;;5053702;28;20025;-61
2021/01/12 06:42:27;;;;;;;27.48;16.85;;;1.10;99.90;;;;;;5055457;28;20036;-61
2021/01/12 06:44:54;;;;;;;25.88;15.32;;;1.00;99.90;;;;;;5037127;28;20033;-60
2021/01/12 06:47:23;;;;;;;22.90;15.00;;;1.10;99.90;;;;;;5054312;28;20071;-61
2021/01/12 06:49:49;;;;;;;19.52;13.07;;;1.10;99.90;;;;;;5056056;28;20033;-62
2021/01/12 06:52:15;;;;;;;22.83;14.65;;;1.10;99.90;;;;;;5055615;28;20116;-61
2021/01/12 06:54:46;;;;;;;23.70;14.73;;;1.10;99.90;;;;;;5054273;28;20025;-62
2021/01/12 06:57:24;;;;;;;20.77;13.23;;;1.10;99.90;;;;;;5056653;28;20045;-63
2021/01/12 06:59:54;;;;;;;25.23;14.48;;;1.10;99.90;;;;;;5053280;28;20032;-61
2021/01/12 07:02:21;;;;;;;23.00;14.73;;;1.10;99.90;;;;;;5054859;28;20506;-61
2021/01/12 07:04:56;;;;;;;20.73;13.73;;;1.10;99.90;;;;;;5052642;28;20102;-60
2021/01/12 07:07:23;;;;;;;21.63;13.48;;;1.10;99.90;;;;;;5033266;28;20097;-61
2021/01/12 07:09:52;;;;;;;21.20;13.25;;;1.10;99.90;;;;;;5032648;28;20021;-61
2021/01/12 07:12:22;;;;;;;24.38;14.40;;;1.20;99.90;;;;;;5033169;28;20083;-61
2021/01/12 07:14:51;;;;;;;22.00;13.43;;;1.20;99.90;;;;;;5033768;28;20083;-61
2021/01/12 07:17:31;;;;;;;22.23;14.23;;;1.20;99.90;;;;;;5033911;28;20068;-61
2021/01/12 07:20:08;;;;;;;20.63;12.60;;;1.20;99.90;;;;;;5033759;28;20247;-61
2021/01/12 07:22:35;;;;;;;19.33;13.00;;;1.10;99.90;;;;;;5032923;28;20033;-61
2021/01/12 07:25:03;;;;;;;19.20;13.38;;;1.20;99.90;;;;;;5032605;28;20075;-61
2021/01/12 07:27:28;;;;;;;19.02;12.63;;;1.10;99.90;;;;;;5034145;28;20029;-61
2021/01/12 07:29:55;;;;;;;22.63;12.63;;;1.20;99.90;;;;;;5033334;28;20489;-61
2021/01/12 07:32:32;;;;;;;23.45;13.38;;;1.20;99.90;;;;;;5032890;28;20025;-61
2021/01/12 07:35:00;;;;;;;21.50;12.65;;;1.20;99.90;;;;;;5037318;28;20111;-61
2021/01/12 07:37:33;;;;;;;17.98;12.40;;;1.20;99.90;;;;;;5072438;28;20036;-61
2021/01/12 07:39:59;;;;;;;18.20;11.13;;;1.20;99.90;;;;;;5073127;28;20029;-61
2021/01/12 07:42:25;;;;;;;19.40;12.88;;;1.10;99.90;;;;;;5071963;28;20025;-61
2021/01/12 07:44:51;;;;;;;19.95;12.80;;;1.20;99.90;;;;;;5073044;28;20363;-61
2021/01/12 07:47:18;;;;;;;15.43;10.88;;;1.20;99.90;;;;;;5073376;28;20025;-61
2021/01/12 07:49:47;;;;;;;19.20;11.65;;;1.20;99.90;;;;;;5052988;28;20025;-60
2021/01/12 07:52:13;;;;;;;17.67;11.63;;;1.20;99.90;;;;;;5052133;28;20036;-61
2021/01/12 07:54:41;;;;;;;18.05;9.82;;;3.40;99.90;;;;;;5050046;28;20040;-62
2021/01/12 07:57:12;;;;;;;12.45;9.02;;;3.90;99.90;;;;;;5052738;28;20127;-62
2021/01/12 07:59:38;;;;;;;10.95;7.93;;;4.30;99.90;;;;;;5059526;28;20025;-61
2021/01/12 08:02:05;;;;;;;13.30;8.70;;;2.80;99.90;;;;;;5073246;28;20029;-61
2021/01/12 08:04:32;;;;;;;15.15;9.82;;;2.20;99.90;;;;;;5073074;28;20040;-61
2021/01/12 08:06:58;;;;;;;14.73;10.00;;;2.00;99.90;;;;;;5071502;28;20070;-61
2021/01/12 08:09:25;;;;;;;14.50;9.27;;;1.80;99.90;;;;;;5073295;28;20043;-61
2021/01/12 08:11:54;;;;;;;14.70;10.25;;;1.70;99.90;;;;;;5072565;28;20033;-61
2021/01/12 08:14:26;;;;;;;13.52;9.25;;;1.70;99.90;;;;;;5073453;28;20028;-61
2021/01/12 08:16:52;;;;;;;;;;;1.60;99.90;;;;;;5071840;28;20435;-61
2021/01/12 08:19:25;;;;;;;14.15;9.38;;;1.50;99.90;;;;;;5052959;28;20016;-61
2021/01/12 08:21:52;;;;;;;15.93;9.27;;;1.50;99.90;;;;;;5054193;28;20095;-62
2021/01/12 08:24:35;;;;;;;33.40;10.65;;;1.60;99.90;;;;;;5053381;28;20470;-61
2021/01/12 08:27:06;;;;;;;15.30;8.77;;;1.50;99.90;;;;;;5052396;28;20245;-61
2021/01/12 08:29:32;;;;;;;16.25;9.20;;;1.50;99.90;;;;;;5051694;28;20394;-61
2021/01/12 08:32:05;;;;;;;16.80;9.52;;;1.50;99.90;;;;;;5052574;28;20029;-61
2021/01/12 08:34:39;;;;;;;14.95;9.70;;;1.50;99.90;;;;;;5051526;28;20025;-61
2021/01/12 08:37:06;;;;;;;14.77;8.93;;;1.50;99.90;;;;;;5051982;28;20025;-61
2021/01/12 08:39:33;;;;;;;14.02;7.90;;;1.60;99.90;;;;;;5052822;28;20052;-61
2021/01/12 08:42:04;;;;;;;13.23;8.13;;;1.70;99.90;;;;;;5051461;28;20501;-61
2021/01/12 08:44:34;;;;;;;9.88;7.25;;;1.60;99.90;;;;;;5053072;28;20082;-61
2021/01/12 08:47:04;;;;;;;11.77;7.25;;;1.60;99.90;;;;;;5051557;28;20072;-61
2021/01/12 08:49:32;;;;;;;11.52;7.45;;;1.60;99.90;;;;;;5068185;28;20082;-61
2021/01/12 08:51:59;;;;;;;13.00;8.90;;;1.60;99.90;;;;;;5071919;28;20458;-63
2021/01/12 08:54:25;;;;;;;9.85;6.95;;;1.60;99.90;;;;;;5072553;28;20559;-61
2021/01/12 08:56:58;;;;;;;14.60;7.70;;;1.60;99.90;;;;;;5071494;28;20021;-62
2021/01/12 08:59:29;;;;;;;12.25;7.28;;;1.60;99.90;;;;;;5072997;28;20028;-60
2021/01/12 09:01:57;;;;;;;10.57;6.05;;;1.60;99.90;;;;;;5073098;28;20025;-65
2021/01/12 09:04:23;;;;;;;13.85;6.80;;;1.70;99.90;;;;;;5072771;28;20028;-60
2021/01/12 09:07:00;;;;;;;9.23;5.35;;;1.70;99.90;;;;;;5071973;28;20041;-67
2021/01/12 09:09:26;;;;;;;11.45;6.05;;;1.70;99.90;;;;;;5072607;28;20025;-60
2021/01/12 09:11:53;;;;;;;9.77;6.40;;;1.60;99.90;;;;;;5072610;28;20504;-61
2021/01/12 09:14:22;;;;;;;7.50;5.57;;;1.60;99.90;;;;;;5072206;28;20021;-60
2021/01/12 09:16:55;;;;;;;7.88;4.90;;;1.60;99.90;;;;;;5071493;28;20111;-64
2021/01/12 09:19:20;;;;;;;7.30;4.22;;;1.70;99.90;;;;;;5058848;28;20450;-61
2021/01/12 09:21:46;;;;;;;6.50;4.10;;;1.70;99.90;;;;;;5055941;28;20025;-61
2021/01/12 09:24:19;;;;;;;5.45;3.95;;;1.80;99.90;;;;;;5056837;28;20091;-60
2021/01/12 09:26:45;;;;;;;4.63;3.38;;;1.80;99.90;;;;;;5056277;28;20087;-65
2021/01/12 09:29:11;;;;;;;6.18;4.50;;;1.80;99.90;;;;;;5055420;28;20064;-60
2021/01/12 09:31:47;;;;;;;5.20;3.53;;;1.90;99.90;;;;;;5056773;28;20375;-63
2021/01/12 09:34:23;;;;;;;5.20;3.38;;;1.90;99.90;;;;;;5055795;28;20021;-61
2021/01/12 09:36:49;;;;;;;5.15;3.28;;;1.90;99.90;;;;;;5054787;28;20386;-61
2021/01/12 09:39:15;;;;;;;4.43;2.88;;;2.00;99.90;;;;;;5055554;28;20040;-61
2021/01/12 09:41:42;;;;;;;3.67;2.85;;;2.00;99.90;;;;;;5055986;28;20033;-66
2021/01/12 09:44:08;;;;;;;3.08;2.03;;;2.10;99.90;;;;;;5055021;28;20359;-60
2021/01/12 09:46:35;;;;;;;3.28;2.30;;;2.10;99.90;;;;;;5050767;28;20025;-61
2021/01/12 09:49:09;;;;;;;3.40;2.40;;;2.00;99.90;;;;;;5068376;28;20391;-60
2021/01/12 09:51:35;;;;;;;3.10;2.10;;;2.10;99.90;;;;;;5074112;28;20075;-60
2021/01/12 09:54:01;;;;;;;3.00;1.63;;;2.20;99.90;;;;;;5074834;28;20037;-63
2021/01/12 09:56:26;;;;;;;2.25;1.92;;;2.20;99.90;;;;;;5058134;28;20142;-61
2021/01/12 09:58:52;;;;;;;3.42;1.63;;;2.30;99.90;;;;;;5058531;28;20068;-62
2021/01/12 10:01:19;;;;;;;2.80;1.63;;;2.20;99.90;;;;;;5060375;28;20068;-61
2021/01/12 10:03:47;;;;;;;4.93;1.98;;;2.20;99.90;;;;;;5074336;28;20079;-61
2021/01/12 10:06:16;;;;;;;3.70;2.05;;;2.30;99.90;;;;;;5074872;28;20037;-60
2021/01/12 10:08:42;;;;;;;2.42;1.83;;;2.40;99.90;;;;;;5058013;28;20040;-60
2021/01/12 10:11:09;;;;;;;4.70;2.33;;;2.30;99.90;;;;;;5057204;28;20033;-59
2021/01/12 10:13:34;;;;;;;2.35;1.70;;;2.40;99.90;;;;;;5057832;28;20042;-60
2021/01/12 10:16:00;;;;;;;2.22;1.50;;;2.40;99.90;;;;;;5057334;28;20024;-60
2021/01/12 10:18:26;;;;;;;4.47;2.08;;;2.40;99.90;;;;;;5077931;28;20107;-60
2021/01/12 10:20:51;;;;;;;2.63;2.00;;;2.40;99.90;;;;;;5077082;28;20061;-63
2021/01/12 10:23:17;;;;;;;2.13;1.73;;;2.50;99.90;;;;;;5067017;28;20467;-61
2021/01/12 10:25:43;;;;;;;3.58;1.58;;;2.50;99.90;;;;;;5058370;28;20037;-61
2021/01/12 10:28:09;;;;;;;4.07;2.05;;;2.50;99.90;;;;;;5056769;28;20538;-69
2021/01/12 10:30:35;;;;;;;2.55;1.55;;;2.50;99.90;;;;;;5056065;28;20065;-61
2021/01/12 10:33:01;;;;;;;2.30;1.52;;;2.60;99.90;;;;;;5057325;28;20017;-61
2021/01/12 10:35:27;;;;;;;2.83;1.83;;;2.50;99.90;;;;;;5056247;28;20032;-61
2021/01/12 10:37:52;;;;;;;1.92;1.35;;;2.50;99.90;;;;;;5055595;28;20036;-60
2021/01/12 10:40:19;;;;;;;2.28;1.52;;;2.60;99.90;;;;;;5038096;28;20032;-61
2021/01/12 10:42:46;;;;;;;2.17;1.48;;;2.60;99.90;;;;;;5055876;28;20037;-61
2021/01/12 10:45:13;;;;;;;2.63;1.63;;;2.60;99.90;;;;;;5055119;28;20025;-60
2021/01/12 10:47:43;;;;;;;3.10;1.63;;;2.70;99.90;;;;;;5069252;28;20037;-62
2021/01/12 10:50:14;;;;;;;3.25;1.45;;;2.70;99.90;;;;;;5073849;28;20032;-61
2021/01/12 10:52:40;;;;;;;1.90;1.42;;;2.70;99.90;;;;;;5075293;28;20021;-61
2021/01/12 10:55:07;;;;;;;4.75;1.33;;;2.80;99.90;;;;;;5075210;28;20031;-60
2021/01/12 10:57:33;;;;;;;1.30;1.10;;;2.80;99.90;;;;;;5075868;28;20031;-61
2021/01/12 10:59:59;;;;;;;3.22;1.42;;;2.80;99.90;;;;;;5077147;28;20025;-61
2021/01/12 11:02:24;;;;;;;3.80;1.75;;;2.90;99.90;;;;;;5078138;28;20032;-61
2021/01/12 11:04:50;;;;;;;2.20;1.40;;;2.90;99.90;;;;;;5075164;28;20040;-69
2021/01/12 11:07:16;;;;;;;1.92;1.02;;;2.90;99.90;;;;;;5075083;28;20112;-61
2021/01/12 11:09:42;;;;;;;5.60;1.25;;;2.90;99.90;;;;;;5074280;28;20078;-59
2021/01/12 11:12:09;;;;;;;5.05;1.45;;;3.00;99.90;;;;;;5074881;28;20025;-61
2021/01/12 11:14:35;;;;;;;3.10;1.08;;;3.00;99.90;;;;;;5076395;28;20033;-65
2021/01/12 11:17:01;;;;;;;2.28;1.45;;;3.00;99.90;;;;;;5065831;28;20103;-62
2021/01/12 11:19:27;;;;;;;1.90;1.27;;;3.00;99.90;;;;;;5056857;28;20079;-60
2021/01/12 11:21:53;;;;;;;2.42;1.50;;;3.00;99.90;;;;;;5053287;28;20052;-62
2021/01/12 11:24:22;;;;;;;2.97;1.00;;;3.00;99.90;;;;;;5054871;28;20435;-61
2021/01/12 11:26:49;;;;;;;2.60;1.30;;;3.00;99.90;;;;;;5055448;28;20060;-61
2021/01/12 11:29:15;;;;;;;2.70;1.27;;;3.10;99.90;;;;;;5053591;28;20033;-61
2021/01/12 11:31:41;;;;;;;1.85;1.17;;;3.10;99.90;;;;;;5054303;28;20028;-61
2021/01/12 11:34:07;;;;;;;1.73;1.45;;;3.10;99.90;;;;;;5056702;28;20033;-61
2021/01/12 11:36:40;;;;;;;1.92;0.95;;;3.20;99.90;;;;;;5056394;28;20025;-61
2021/01/12 11:39:09;;;;;;;1.52;0.90;;;3.10;99.90;;;;;;5056469;28;20049;-61
2021/01/12 11:41:36;;;;;;;1.13;1.02;;;3.20;99.90;;;;;;5056820;28;20032;-69
2021/01/12 11:44:02;;;;;;;1.45;1.05;;;3.20;99.90;;;;;;5054932;28;20119;-60
2021/01/12 11:46:29;;;;;;;1.85;0.93;;;3.20;99.90;;;;;;5053914;28;20111;-59
2021/01/12 11:48:56;;;;;;;5.90;1.67;;;3.20;99.90;;;;;;5053904;28;20072;-62
2021/01/12 11:51:22;;;;;;;3.92;1.10;;;3.20;99.90;;;;;;5054854;28;20411;-61
2021/01/12 11:53:51;;;;;;;1.55;1.05;;;3.20;99.90;;;;;;5052931;28;20056;-60
2021/01/12 11:56:18;;;;;;;5.82;1.25;;;3.20;99.90;;;;;;5051933;28;20493;-60
2021/01/12 11:58:43;;;;;;;1.42;1.15;;;3.30;99.90;;;;;;5053041;28;20043;-60
2021/01/12 12:01:09;;;;;;;0.75;0.65;;;3.30;99.90;;;;;;5053412;28;20067;-61
2021/01/12 12:03:35;;;;;;;2.42;1.20;;;3.30;99.90;;;;;;5053949;28;20035;-61
2021/01/12 12:06:00;;;;;;;1.90;1.10;;;3.30;99.90;;;;;;5053343;28;20049;-61
2021/01/12 12:08:26;;;;;;;1.00;0.75;;;3.30;99.90;;;;;;5054404;28;20075;-61
2021/01/12 12:10:52;;;;;;;0.95;0.75;;;3.30;99.90;;;;;;5053526;28;20036;-64
2021/01/12 12:13:17;;;;;;;1.95;1.15;;;3.40;99.90;;;;;;5052904;28;20451;-60
2021/01/12 12:15:47;;;;;;;3.33;1.20;;;3.40;99.90;;;;;;5052238;28;20125;-60
2021/01/12 12:18:13;;;;;;;1.90;1.25;;;3.50;99.90;;;;;;5052713;28;20049;-60
2021/01/12 12:20:39;;;;;;;1.27;0.70;;;3.50;99.90;;;;;;5052314;28;20052;-65
2021/01/12 12:23:04;;;;;;;1.58;1.08;;;3.50;99.90;;;;;;5035508;28;20033;-61
2021/01/12 12:25:30;;;;;;;1.55;0.90;;;3.50;99.90;;;;;;5053513;28;20091;-61
2021/01/12 12:27:56;;;;;;;1.67;0.70;;;3.60;99.90;;;;;;5053268;28;20036;-63
2021/01/12 12:30:22;;;;;;;1.65;1.13;;;3.60;99.90;;;;;;5054035;28;20462;-61
2021/01/12 12:32:50;;;;;;;1.30;0.80;;;3.60;99.90;;;;;;5052829;28;20025;-62
2021/01/12 12:35:16;;;;;;;6.05;1.02;;;3.60;99.90;;;;;;5052374;28;20096;-59
2021/01/12 12:37:41;;;;;;;1.20;0.77;;;3.60;99.90;;;;;;5053748;28;20116;-60
2021/01/12 12:40:07;;;;;;;4.85;0.90;;;3.70;99.90;;;;;;5053069;28;20029;-61
2021/01/12 12:42:33;;;;;;;1.52;1.42;;;3.60;99.90;;;;;;5054036;28;20490;-59
2021/01/12 12:44:59;;;;;;;1.67;1.35;;;3.60;99.90;;;;;;5053704;28;20032;-61
2021/01/12 12:47:25;;;;;;;1.65;1.30;;;3.70;99.90;;;;;;5042205;28;20041;-67